Time;durP1;ratioP1;P1;durP2;ratioP2;P2;SDS_P1;SDS_P2;PMS_P1;PMS_P2;Temp;Humidity;BMP_temperature;BMP_pressure;BME280_temperature;BME280_humidity;BME280_pressure;Samples;Min_cycle;Max_cycle;Signal;HPM_P1;HPM_P2
2021/12/10 00:02:13;;;;;;;34.42;12.02;;;;;;;0.65;100.00;99350.34;5211870;28;19963;-79
2021/12/10 00:04:44;;;;;;;37.00;14.20;;;;;;;0.78;100.00;99341.56;5215911;28;20020;-79
2021/12/10 00:07:19;;;;;;;33.25;13.40;;;;;;;0.93;100.00;99343.84;5223069;28;20036;-78
2021/12/10 00:09:54;;;;;;;42.67;14.18;;;;;;;1.02;100.00;99335.13;5208248;28;20705;-79
2021/12/10 00:12:31;;;;;;;41.90;14.05;;;;;;;1.01;100.00;99328.31;5244726;22;20132;-79
2021/12/10 00:15:04;;;;;;;38.95;13.90;;;;;;;1.19;100.00;99326.25;5230159;28;20518;-78
2021/12/10 00:17:35;;;;;;;35.13;14.32;;;;;;;1.12;100.00;99328.97;5221204;28;20493;-81
2021/12/10 00:20:07;;;;;;;42.35;14.27;;;;;;;1.00;100.00;99324.91;5234872;28;20024;-80
2021/12/10 00:22:50;;;;;;;37.47;13.75;;;;;;;1.12;100.00;99319.53;5225325;28;20024;-79
2021/12/10 00:25:37;;;;;;;37.10;13.63;;;;;;;1.19;100.00;99303.09;5218564;28;20032;-80
2021/12/10 00:28:39;;;;;;;39.25;14.70;;;;;;;1.19;100.00;99292.81;5221788;28;20506;-79
2021/12/10 00:31:31;;;;;;;38.55;14.18;;;;;;;1.22;100.00;99281.63;5231110;28;20028;-79
2021/12/10 00:34:11;;;;;;;39.92;14.30;;;;;;;1.27;100.00;99272.91;5233150;28;20498;-80
2021/12/10 00:36:42;;;;;;;36.72;14.50;;;;;;;1.27;100.00;99284.97;5227208;28;20121;-80
2021/12/10 00:39:20;;;;;;;38.25;14.07;;;;;;;1.30;100.00;99278.03;5223623;28;20071;-81
2021/12/10 00:41:53;;;;;;;35.92;13.43;;;;;;;1.29;100.00;99278.91;5221128;28;20280;-80
2021/12/10 00:44:23;;;;;;;39.28;14.38;;;;;;;1.24;100.00;99270.41;5221856;28;20051;-81
2021/12/10 00:46:54;;;;;;;35.38;14.20;;;;;;;1.35;100.00;99272.78;5221604;28;20459;-79
2021/12/10 00:49:24;;;;;;;33.78;12.98;;;;;;;1.34;100.00;99261.66;5220961;28;20036;-79
2021/12/10 00:51:55;;;;;;;35.60;13.98;;;;;;;1.42;100.00;99262.34;5218472;28;20072;-79
2021/12/10 00:54:25;;;;;;;32.00;13.15;;;;;;;1.31;100.00;99251.44;5220157;28;20070;-79
2021/12/10 00:56:56;;;;;;;35.33;13.93;;;;;;;1.46;100.00;99250.25;5221367;28;20037;-81
2021/12/10 00:59:26;;;;;;;38.33;12.95;;;;;;;1.44;100.00;99247.69;5224039;28;20060;-80
2021/12/10 01:01:57;;;;;;;34.72;13.82;;;;;;;1.43;100.00;99250.31;5225812;28;20098;-79
2021/12/10 01:04:33;;;;;;;38.33;14.68;;;;;;;1.46;100.00;99250.25;5220862;28;20024;-79
2021/12/10 01:07:09;;;;;;;34.92;14.00;;;;;;;1.47;100.00;99237.38;5232370;28;20035;-79
2021/12/10 01:09:43;;;;;;;34.45;13.52;;;;;;;1.51;100.00;99239.00;5221319;28;20033;-79
2021/12/10 01:12:37;;;;;;;35.37;14.70;;;;;;;1.31;100.00;99236.00;5217711;28;20031;-80
2021/12/10 01:26:56;;;;;;;46.40;16.65;;;;;;;1.44;100.00;99223.72;5219884;28;20028;-80
2021/12/10 01:29:31;;;;;;;41.60;15.70;;;;;;;1.39;100.00;99215.25;5224832;28;20118;-80
2021/12/10 01:32:05;;;;;;;44.67;16.92;;;;;;;1.37;100.00;99210.13;5229310;28;20044;-79
2021/12/10 01:34:35;;;;;;;41.28;15.10;;;;;;;1.45;100.00;99203.09;5214410;28;20551;-79
2021/12/10 01:37:06;;;;;;;43.72;15.20;;;;;;;1.47;100.00;99192.75;5230050;28;20116;-79
2021/12/10 01:39:39;;;;;;;40.78;14.98;;;;;;;1.47;100.00;99196.19;5225310;28;20127;-79
2021/12/10 01:42:17;;;;;;;41.15;15.27;;;;;;;1.49;100.00;99197.00;5215071;28;20288;-80
2021/12/10 01:44:52;;;;;;;37.92;14.32;;;;;;;1.47;100.00;99197.91;5215453;28;20029;-79
2021/12/10 01:47:26;;;;;;;42.90;14.68;;;;;;;1.50;100.00;99190.13;5224803;28;20435;-79
2021/12/10 01:49:57;;;;;;;36.40;14.18;;;;;;;1.62;100.00;99185.56;5225316;28;20076;-80
2021/12/10 01:52:27;;;;;;;34.05;13.57;;;;;;;1.53;100.00;99184.91;5223682;28;20032;-79
2021/12/10 01:54:59;;;;;;;34.55;13.77;;;;;;;1.51;100.00;99174.66;5225172;28;20040;-80
2021/12/10 01:57:34;;;;;;;34.88;13.20;;;;;;;1.64;100.00;99168.38;5224755;28;20032;-81
2021/12/10 02:00:09;;;;;;;39.22;14.52;;;;;;;1.61;100.00;99168.41;5229764;28;20032;-80
2021/12/10 02:02:43;;;;;;;30.80;12.68;;;;;;;1.44;100.00;99165.34;5229236;28;20037;-80
2021/12/10 02:05:15;;;;;;;35.88;13.13;;;;;;;1.47;100.00;99159.31;5228319;28;20020;-79
2021/12/10 02:07:46;;;;;;;33.25;12.90;;;;;;;1.54;100.00;99169.44;5228876;28;20029;-79
2021/12/10 02:10:20;;;;;;;33.13;12.75;;;;;;;1.53;100.00;99154.88;5224173;28;20477;-81
2021/12/10 02:12:50;;;;;;;36.40;12.32;;;;;;;1.47;100.00;99164.47;5225090;28;20032;-79
2021/12/10 02:15:22;;;;;;;32.72;12.45;;;;;;;1.35;100.00;99169.84;5227724;28;20077;-80
2021/12/10 02:17:55;;;;;;;33.90;12.00;;;;;;;1.32;100.00;99157.94;5232421;28;20029;-80
2021/12/10 02:20:37;;;;;;;26.10;11.88;;;;;;;1.32;100.00;99157.06;5224264;28;20510;-81
2021/12/10 02:23:07;;;;;;;30.70;11.55;;;;;;;1.28;100.00;99158.00;5223881;28;20029;-80
2021/12/10 02:25:38;;;;;;;33.60;12.23;;;;;;;1.14;100.00;99158.31;5224810;28;20462;-79
2021/12/10 02:28:11;;;;;;;27.05;10.05;;;;;;;1.32;100.00;99160.50;5223967;28;20544;-80
2021/12/10 02:30:41;;;;;;;30.17;10.63;;;;;;;1.40;100.00;99145.72;5228921;28;20037;-80
2021/12/10 02:33:12;;;;;;;25.30;11.32;;;;;;;1.42;100.00;99156.81;5228016;28;20102;-79
2021/12/10 02:35:43;;;;;;;26.05;10.32;;;;;;;1.46;100.00;99155.91;5223680;28;20036;-82
2021/12/10 02:38:17;;;;;;;23.38;10.18;;;;;;;1.38;100.00;99139.78;5223928;28;20036;-79
2021/12/10 02:40:49;;;;;;;26.23;10.68;;;;;;;1.33;100.00;99140.75;5224501;28;20045;-79
2021/12/10 02:43:21;;;;;;;24.73;10.25;;;;;;;1.38;100.00;99133.78;5224076;28;20398;-81
2021/12/10 02:45:55;;;;;;;28.27;10.77;;;;;;;1.37;100.00;99138.06;5230053;28;20029;-79
2021/12/10 02:48:26;;;;;;;24.75;10.32;;;;;;;1.42;100.00;99123.38;5228959;28;20033;-79
2021/12/10 02:50:58;;;;;;;25.40;9.20;;;;;;;1.47;100.00;99134.44;5223721;28;20478;-82
2021/12/10 02:53:34;;;;;;;20.70;8.75;;;;;;;1.47;100.00;99129.28;5224193;28;20049;-80
2021/12/10 02:56:04;;;;;;;;;;;;;;;1.62;100.00;99128.94;5214391;28;20478;-80
2021/12/10 02:58:35;;;;;;;21.65;8.18;;;;;;;1.52;100.00;99117.16;5223532;28;19913;-79
2021/12/10 03:01:10;;;;;;;20.85;7.78;;;;;;;1.48;100.00;99118.13;5234959;28;20400;-80
2021/12/10 03:03:42;;;;;;;20.67;7.70;;;;;;;1.47;100.00;99113.84;5219414;28;20448;-82
2021/12/10 03:06:14;;;;;;;19.38;8.27;;;;;;;1.47;100.00;99119.00;5222624;28;20025;-80
2021/12/10 03:08:48;;;;;;;21.88;8.80;;;;;;;1.38;100.00;99113.22;5223765;28;20094;-79
2021/12/10 03:11:26;;;;;;;18.02;7.63;;;;;;;1.36;100.00;99112.38;5223433;28;20403;-80
2021/12/10 03:13:57;;;;;;;17.85;7.47;;;;;;;1.34;100.00;99104.72;5224004;28;20036;-80
2021/12/10 03:16:28;;;;;;;19.67;8.07;;;;;;;1.39;100.00;99105.44;5230052;28;20047;-80
2021/12/10 03:18:58;;;;;;;17.83;7.00;;;;;;;1.44;100.00;99098.44;5233754;28;20028;-79
2021/12/10 03:21:29;;;;;;;17.20;7.03;;;;;;;1.31;100.00;99086.78;5225027;28;20066;-80
2021/12/10 03:23:59;;;;;;;16.02;6.53;;;;;;;1.36;100.00;99090.06;5223047;28;20028;-79
2021/12/10 03:26:31;;;;;;;15.23;6.45;;;;;;;1.52;100.00;99086.28;5222942;28;20040;-79
2021/12/10 03:29:02;;;;;;;17.10;6.65;;;;;;;1.54;100.00;99083.66;5226459;28;20025;-79
2021/12/10 03:31:33;;;;;;;16.00;5.75;;;;;;;1.57;100.00;99088.75;5232147;28;20368;-80
2021/12/10 03:34:04;;;;;;;14.80;6.03;;;;;;;1.50;100.00;99095.75;5222799;28;20591;-80
2021/12/10 03:36:34;;;;;;;12.85;5.97;;;;;;;1.46;100.00;99091.56;5222533;28;20028;-79
2021/12/10 03:39:05;;;;;;;11.95;4.80;;;;;;;1.58;100.00;99080.97;5223411;28;20174;-79
2021/12/10 03:41:35;;;;;;;12.68;5.28;;;;;;;1.67;100.00;99080.75;5222743;28;20112;-81
2021/12/10 03:44:06;;;;;;;10.43;5.00;;;;;;;1.74;100.00;99084.88;5222877;28;20040;-80
2021/12/10 03:46:37;;;;;;;9.13;4.20;;;;;;;1.88;100.00;99075.06;5222610;28;20308;-80
2021/12/10 03:49:08;;;;;;;9.60;4.00;;;;;;;1.92;100.00;99074.09;5234029;28;20040;-80
2021/12/10 03:51:39;;;;;;;8.23;3.83;;;;;;;1.98;100.00;99072.22;5222077;28;20052;-81
2021/12/10 03:54:10;;;;;;;7.63;3.72;;;;;;;2.19;100.00;99070.84;5221970;28;20040;-79
2021/12/10 03:56:40;;;;;;;8.90;3.72;;;;;;;2.10;100.00;99076.22;5218395;28;20047;-81
2021/12/10 03:59:14;;;;;;;8.65;3.80;;;;;;;2.25;100.00;99074.09;5226235;28;20107;-80
2021/12/10 04:01:48;;;;;;;9.43;3.92;;;;;;;2.22;100.00;99069.03;5231030;28;20442;-80
2021/12/10 04:04:24;;;;;;;9.38;4.30;;;;;;;2.34;100.00;99071.25;5221932;28;20068;-80
2021/12/10 04:06:56;;;;;;;9.18;4.30;;;;;;;2.38;100.00;99079.75;5222474;28;20109;-80
2021/12/10 04:09:26;;;;;;;7.95;4.05;;;;;;;2.31;100.00;99065.38;5222504;28;20032;-79
2021/12/10 04:11:57;;;;;;;10.73;5.15;;;;;;;2.25;100.00;99060.34;5222305;28;20037;-79
2021/12/10 04:14:27;;;;;;;12.75;5.55;;;;;;;2.13;100.00;99060.72;5222143;28;20020;-81
2021/12/10 04:16:57;;;;;;;13.38;5.43;;;;;;;2.10;100.00;99053.88;5223725;28;20029;-79
2021/12/10 04:19:30;;;;;;;15.40;5.28;;;;;;;2.17;100.00;99045.09;5228806;28;20048;-79
2021/12/10 04:22:03;;;;;;;13.23;5.70;;;;;;;2.13;100.00;99052.97;5222274;28;20124;-79
2021/12/10 04:24:36;;;;;;;15.73;6.13;;;;;;;2.16;100.00;99046.00;5212821;28;20024;-79
2021/12/10 04:27:09;;;;;;;13.13;6.20;;;;;;;2.08;100.00;99042.78;5221440;28;20033;-81
2021/12/10 04:29:40;;;;;;;17.83;7.10;;;;;;;2.07;100.00;99041.09;5226562;28;20036;-79
2021/12/10 04:32:12;;;;;;;17.90;6.28;;;;;;;2.15;100.00;99038.31;5225006;28;20082;-79
2021/12/10 04:34:43;;;;;;;15.85;6.43;;;;;;;2.18;100.00;99033.06;5221652;28;20032;-79
2021/12/10 04:37:13;;;;;;;14.80;6.57;;;;;;;2.17;100.00;99036.53;5221569;28;20032;-80
2021/12/10 04:39:48;;;;;;;14.68;6.28;;;;;;;2.22;100.00;99029.53;5221663;28;20394;-80
2021/12/10 04:42:23;;;;;;;15.93;6.68;;;;;;;2.25;100.00;99034.59;5221501;28;20032;-80
2021/12/10 04:44:57;;;;;;;17.25;7.38;;;;;;;2.23;100.00;99032.06;5221354;28;20039;-81
2021/12/10 04:47:28;;;;;;;16.63;6.63;;;;;;;2.16;100.00;99022.81;5225916;28;20036;-80
2021/12/10 04:49:59;;;;;;;17.58;7.18;;;;;;;2.25;100.00;99026.84;5230387;28;20094;-82
2021/12/10 04:52:31;;;;;;;18.05;7.55;;;;;;;2.09;100.00;99028.16;5222455;28;21090;-82
2021/12/10 04:55:10;;;;;;;17.05;7.15;;;;;;;2.10;100.00;99024.69;5222340;28;20471;-80
2021/12/10 04:57:41;;;;;;;18.02;7.53;;;;;;;2.04;100.00;99022.28;5217622;28;20028;-79
2021/12/10 05:00:17;;;;;;;14.82;7.05;;;;;;;2.16;100.00;99009.09;5225821;28;20025;-79
2021/12/10 05:02:50;;;;;;;16.27;7.28;;;;;;;2.20;100.00;99014.09;5222882;28;20055;-80
2021/12/10 05:05:20;;;;;;;20.23;7.68;;;;;;;2.14;100.00;99010.88;5220025;28;20025;-79
2021/12/10 05:07:51;;;;;;;18.88;7.80;;;;;;;2.18;100.00;99010.72;5221214;28;20078;-80
2021/12/10 05:10:21;;;;;;;16.25;7.03;;;;;;;1.99;100.00;98995.81;5220418;28;20471;-79
2021/12/10 05:12:51;;;;;;;21.48;8.25;;;;;;;1.84;100.00;98999.63;5221323;28;20090;-79
2021/12/10 05:15:26;;;;;;;18.83;7.70;;;;;;;1.93;100.00;99001.13;5220475;28;20024;-79
2021/12/10 05:17:58;;;;;;;18.92;7.88;;;;;;;1.92;100.00;98999.44;5228596;28;20143;-80
2021/12/10 05:20:36;;;;;;;19.27;7.30;;;;;;;1.85;100.00;98992.75;5224281;28;20040;-79
2021/12/10 05:23:07;;;;;;;18.77;7.63;;;;;;;1.89;100.00;98981.50;5221524;28;20277;-79
2021/12/10 05:25:37;;;;;;;20.48;7.13;;;;;;;1.85;100.00;98988.44;5221325;28;20036;-79
2021/12/10 05:28:08;;;;;;;16.27;7.47;;;;;;;1.84;100.00;98971.31;5220822;28;20052;-80
2021/12/10 05:30:39;;;;;;;16.10;7.00;;;;;;;1.98;100.00;98963.22;5229254;28;20036;-80
2021/12/10 05:33:15;;;;;;;19.63;7.80;;;;;;;1.90;100.00;98957.41;5224955;28;20035;-79
2021/12/10 05:35:47;;;;;;;13.13;6.93;;;;;;;1.69;100.00;98960.56;5217597;28;20040;-79
2021/12/10 05:38:20;;;;;;;19.33;7.95;;;;;;;1.66;100.00;98955.50;5220700;28;20032;-79
2021/12/10 05:40:52;;;;;;;20.48;7.85;;;;;;;1.69;100.00;98960.56;5221064;28;20161;-80
2021/12/10 05:43:24;;;;;;;20.10;7.45;;;;;;;1.74;100.00;98948.41;5220626;28;20037;-79
2021/12/10 05:45:54;;;;;;;16.08;7.03;;;;;;;1.69;100.00;98950.28;5220545;28;20028;-79
2021/12/10 05:48:25;;;;;;;17.02;7.28;;;;;;;1.64;100.00;98949.56;5229201;28;20424;-79
2021/12/10 05:50:55;;;;;;;23.73;6.97;;;;;;;1.46;100.00;98941.47;5225424;28;20021;-79
2021/12/10 05:53:26;;;;;;;18.83;7.38;;;;;;;1.38;100.00;98941.66;5220900;28;20453;-80
2021/12/10 05:55:57;;;;;;;19.17;7.38;;;;;;;1.35;100.00;98946.03;5224126;28;20187;-80
2021/12/10 05:58:27;;;;;;;15.70;6.72;;;;;;;1.32;100.00;98939.25;5222718;28;20104;-80
2021/12/10 06:01:03;;;;;;;19.23;7.55;;;;;;;1.30;100.00;98946.16;5229874;28;20553;-79
2021/12/10 06:03:34;;;;;;;;;;;;;;;1.29;100.00;98947.03;5222130;28;20029;-79
2021/12/10 06:06:05;;;;;;;18.42;7.20;;;;;;;1.30;100.00;98945.31;5221185;28;19917;-79
2021/12/10 06:08:36;;;;;;;21.52;7.68;;;;;;;1.23;100.00;98946.34;5220848;28;20098;-79
2021/12/10 06:11:07;;;;;;;20.88;7.70;;;;;;;1.36;100.00;98946.00;5220790;28;20036;-80
2021/12/10 06:13:37;;;;;;;18.23;7.35;;;;;;;1.26;100.00;98944.53;5220258;28;20051;-81
2021/12/10 06:16:07;;;;;;;16.63;6.97;;;;;;;1.23;100.00;98943.78;5220923;28;20049;-79
2021/12/10 06:18:38;;;;;;;18.20;6.88;;;;;;;1.23;100.00;98944.59;5226958;28;20091;-81
2021/12/10 06:21:08;;;;;;;16.13;7.00;;;;;;;1.27;100.00;98950.53;5225224;28;20075;-79
2021/12/10 06:23:39;;;;;;;16.35;7.22;;;;;;;1.28;100.00;98952.22;5232010;28;20039;-79
2021/12/10 06:26:09;;;;;;;17.52;7.32;;;;;;;1.36;100.00;98940.84;5227630;28;20063;-79
2021/12/10 06:28:44;;;;;;;19.98;7.68;;;;;;;1.32;100.00;98946.97;5230587;28;20032;-79
2021/12/10 06:31:18;;;;;;;19.67;7.97;;;;;;;1.22;100.00;98942.91;5233133;28;20553;-80
2021/12/10 06:33:49;;;;;;;17.88;7.15;;;;;;;1.37;100.00;98950.25;5227274;28;20037;-80
2021/12/10 06:36:21;;;;;;;15.77;7.78;;;;;;;1.30;100.00;98950.44;5228196;28;20033;-79
2021/12/10 06:38:52;;;;;;;19.77;7.75;;;;;;;1.40;100.00;98957.06;5224679;28;20052;-80
2021/12/10 06:41:22;;;;;;;17.65;7.25;;;;;;;1.42;100.00;98950.97;5223254;28;20025;-79
2021/12/10 06:43:52;;;;;;;13.35;6.55;;;;;;;1.59;100.00;98953.13;5224503;28;20083;-79
2021/12/10 06:46:23;;;;;;;17.23;7.57;;;;;;;1.49;100.00;98951.66;5224256;28;20441;-80
2021/12/10 06:48:53;;;;;;;17.52;7.22;;;;;;;1.23;100.00;98949.75;5224436;28;20033;-79
2021/12/10 06:51:24;;;;;;;16.48;7.65;;;;;;;1.29;100.00;98947.03;5224789;28;20032;-80
2021/12/10 06:53:54;;;;;;;15.88;7.63;;;;;;;1.22;100.00;98935.19;5223959;28;20399;-80
2021/12/10 06:56:25;;;;;;;15.05;7.00;;;;;;;1.39;100.00;98945.91;5223922;28;20108;-80
2021/12/10 06:58:55;;;;;;;20.42;7.13;;;;;;;1.34;100.00;98944.34;5226320;28;20031;-80
2021/12/10 07:01:34;;;;;;;14.15;6.78;;;;;;;1.28;100.00;98937.63;5234723;28;20024;-79
2021/12/10 07:04:09;;;;;;;14.63;6.93;;;;;;;1.23;100.00;98943.78;5231571;28;20028;-80
2021/12/10 07:06:41;;;;;;;15.75;7.25;;;;;;;1.19;100.00;98935.28;5223790;28;20049;-80
2021/12/10 07:09:18;;;;;;;17.85;7.20;;;;;;;1.21;100.00;98933.50;5224183;28;20032;-79
2021/12/10 07:11:51;;;;;;;13.00;6.55;;;;;;;1.26;100.00;98934.22;5223898;28;20032;-80
2021/12/10 07:14:21;;;;;;;16.52;7.30;;;;;;;1.34;100.00;98924.59;5224264;28;20064;-79
2021/12/10 07:16:52;;;;;;;17.20;7.35;;;;;;;1.43;100.00;98932.06;5223743;28;20053;-80
2021/12/10 07:19:22;;;;;;;14.07;6.90;;;;;;;1.49;100.00;98931.94;5223983;28;20063;-80
2021/12/10 07:21:53;;;;;;;16.98;6.60;;;;;;;1.44;100.00;98923.47;5224750;28;20080;-80
2021/12/10 07:24:24;;;;;;;13.73;6.03;;;;;;;1.47;100.00;98928.56;5223958;28;20566;-79
2021/12/10 07:26:55;;;;;;;12.68;6.32;;;;;;;1.55;100.00;98924.06;5224056;28;20085;-80
2021/12/10 07:29:26;;;;;;;11.27;5.68;;;;;;;1.49;100.00;98929.38;5227477;28;20024;-79
2021/12/10 07:31:56;;;;;;;14.65;6.03;;;;;;;1.62;100.00;98920.44;5231652;28;20367;-80
2021/12/10 07:34:27;;;;;;;12.45;5.80;;;;;;;1.63;100.00;98916.13;5230711;28;20044;-79
2021/12/10 07:36:57;;;;;;;10.93;5.55;;;;;;;1.65;100.00;98915.22;5226958;28;20647;-80
2021/12/10 07:39:28;;;;;;;12.93;6.05;;;;;;;1.73;100.00;98910.69;5223490;28;20028;-79
2021/12/10 07:42:00;;;;;;;11.85;5.75;;;;;;;1.77;100.00;98916.59;5228452;28;20029;-80
2021/12/10 07:44:30;;;;;;;10.10;5.70;;;;;;;1.74;100.00;98903.81;5219724;28;20048;-80
2021/12/10 07:47:08;;;;;;;13.85;6.10;;;;;;;1.80;100.00;98907.09;5225944;28;20017;-80
2021/12/10 07:49:44;;;;;;;12.15;5.45;;;;;;;1.79;100.00;98900.25;5226628;28;20440;-80
2021/12/10 07:52:22;;;;;;;10.65;5.35;;;;;;;1.77;100.00;98899.41;5222794;28;20048;-80
2021/12/10 07:54:53;;;;;;;13.43;5.55;;;;;;;1.64;100.00;98885.22;5226600;28;20032;-80
2021/12/10 07:57:24;;;;;;;13.95;5.30;;;;;;;1.82;100.00;98884.72;5226154;28;20084;-79
2021/12/10 07:59:55;;;;;;;15.23;5.32;;;;;;;1.90;100.00;98885.31;5232591;28;20639;-80
2021/12/10 08:02:26;;;;;;;9.85;5.00;;;;;;;2.00;100.00;98889.34;5231951;28;20043;-80
2021/12/10 08:04:56;;;;;;;10.43;4.93;;;;;;;2.04;100.00;98885.78;5236675;28;20079;-80
2021/12/10 08:07:26;;;;;;;11.88;4.57;;;;;;;2.07;100.00;98891.69;5227593;28;20032;-80
2021/12/10 08:09:57;;;;;;;10.93;4.78;;;;;;;2.07;100.00;98886.53;5226376;28;20033;-79
2021/12/10 08:12:27;;;;;;;9.25;4.55;;;;;;;2.07;100.00;98880.53;5207213;28;20636;-81
2021/12/10 08:14:58;;;;;;;10.55;4.80;;;;;;;2.23;100.00;98872.34;5223068;28;20060;-82
2021/12/10 08:17:28;;;;;;;11.65;4.72;;;;;;;2.23;100.00;98876.63;5222774;28;20043;-80
2021/12/10 08:19:59;;;;;;;10.40;4.82;;;;;;;2.13;100.00;98865.75;5222595;28;20509;-80
2021/12/10 08:22:29;;;;;;;8.75;4.60;;;;;;;2.12;100.00;98874.38;5222791;28;20044;-81
2021/12/10 08:25:00;;;;;;;12.27;5.18;;;;;;;2.22;100.00;98865.50;5207473;28;20032;-81
2021/12/10 08:27:31;;;;;;;9.68;4.80;;;;;;;2.25;100.00;98859.38;5221384;28;20059;-78
2021/12/10 08:30:03;;;;;;;9.15;4.28;;;;;;;2.38;100.00;98860.72;5229535;28;20517;-82
2021/12/10 08:32:35;;;;;;;9.23;4.32;;;;;;;2.50;100.00;98853.44;5231395;28;20025;-81
2021/12/10 08:35:11;;;;;;;6.13;3.70;;;;;;;2.61;100.00;98855.69;5237792;28;20028;-79
2021/12/10 08:37:41;;;;;;;7.47;3.55;;;;;;;2.74;100.00;98847.53;5219855;28;20090;-79
2021/12/10 08:40:16;;;;;;;9.60;3.95;;;;;;;2.70;100.00;98852.81;5222681;28;20025;-81
2021/12/10 08:42:47;;;;;;;7.07;3.65;;;;;;;2.86;100.00;98848.88;5222594;28;20035;-79
2021/12/10 08:45:19;;;;;;;8.35;4.30;;;;;;;2.80;100.00;98841.31;5220945;28;20444;-79
2021/12/10 08:47:50;;;;;;;8.38;4.38;;;;;;;2.82;100.00;98847.28;5222074;28;20063;-81
2021/12/10 08:50:23;;;;;;;10.25;4.22;;;;;;;2.86;100.00;98843.69;5221671;28;20090;-80
2021/12/10 08:53:01;;;;;;;8.73;4.35;;;;;;;3.04;100.00;98837.94;5221334;28;20466;-80
2021/12/10 08:55:33;;;;;;;7.75;4.00;;;;;;;2.91;100.00;98839.22;5222083;28;20087;-81
2021/12/10 08:58:04;;;;;;;6.80;4.13;;;;;;;2.96;100.00;98829.59;5221340;28;20040;-82
2021/12/10 09:00:37;;;;;;;10.95;4.55;;;;;;;3.04;100.00;98828.44;5233691;28;20028;-81
2021/12/10 09:03:08;;;;;;;7.78;4.15;;;;;;;3.16;100.00;98822.06;5237026;28;20020;-81
2021/12/10 09:05:38;;;;;;;9.77;4.18;;;;;;;3.24;100.00;98813.16;5242728;28;20679;-81
2021/12/10 09:08:09;;;;;;;10.93;4.65;;;;;;;3.01;100.00;98812.25;5233858;28;20040;-81
2021/12/10 09:10:42;;;;;;;11.52;4.70;;;;;;;3.19;100.00;98814.19;5220749;28;20037;-80
2021/12/10 09:13:15;;;;;;;6.28;3.90;;;;;;;3.31;100.00;98804.28;5216102;28;20059;-82
2021/12/10 09:15:50;;;;;;;8.00;3.83;;;;;;;3.36;100.00;98807.53;5221619;28;20444;-81
2021/12/10 09:18:20;;;;;;;9.33;5.00;;;;;;;3.29;100.00;98810.38;5222060;28;20029;-78
2021/12/10 09:20:53;;;;;;;9.13;4.97;;;;;;;3.24;100.00;98804.56;5221282;28;20029;-78
2021/12/10 09:23:26;;;;;;;9.63;4.55;;;;;;;3.40;100.00;98816.03;5221551;28;20032;-80
2021/12/10 09:26:00;;;;;;;9.73;5.28;;;;;;;3.52;100.00;98807.88;5221880;28;20024;-81
2021/12/10 09:28:31;;;;;;;10.52;5.15;;;;;;;3.55;100.00;98811.16;5221355;28;20170;-81
2021/12/10 09:31:02;;;;;;;16.88;6.20;;;;;;;3.57;100.00;98813.69;5240941;28;20111;-80
2021/12/10 09:33:32;;;;;;;11.70;5.78;;;;;;;3.45;100.00;98808.94;5229694;28;20550;-81
2021/12/10 09:36:05;;;;;;;11.30;5.63;;;;;;;3.55;100.00;98805.16;5222612;28;20033;-82
2021/12/10 09:38:36;;;;;;;11.25;5.80;;;;;;;3.56;100.00;98807.66;5221041;28;20033;-84
2021/12/10 09:41:09;;;;;;;12.48;5.90;;;;;;;3.68;100.00;98802.94;5221788;28;20025;-79
2021/12/10 09:43:41;;;;;;;14.10;6.57;;;;;;;3.74;100.00;98800.13;5221616;28;20025;-78
2021/12/10 09:46:12;;;;;;;12.82;6.70;;;;;;;3.89;100.00;98791.81;5201047;28;20021;-83
2021/12/10 09:48:43;;;;;;;11.70;5.97;;;;;;;3.98;100.00;98785.44;5205593;28;20089;-82
2021/12/10 09:51:25;;;;;;;13.90;6.60;;;;;;;4.04;100.00;98788.63;5221826;28;20024;-81
2021/12/10 09:53:58;;;;;;;12.57;6.45;;;;;;;3.84;100.00;98800.63;5221665;28;20021;-78
2021/12/10 09:56:29;;;;;;;11.55;6.03;;;;;;;3.94;100.00;98789.88;5210809;28;20488;-82
2021/12/10 09:58:59;;;;;;;13.73;6.32;;;;;;;3.99;100.00;98790.53;5226826;28;20112;-79
2021/12/10 10:01:33;;;;;;;13.52;6.03;;;;;;;4.05;100.00;98789.47;5246352;28;20025;-81
2021/12/10 10:04:05;;;;;;;11.98;6.13;;;;;;;4.08;100.00;98781.59;5240396;28;20374;-79
2021/12/10 10:06:46;;;;;;;14.25;6.18;;;;;;;3.80;100.00;98784.38;5245686;28;20052;-83
2021/12/10 10:09:20;;;;;;;12.15;6.22;;;;;;;3.93;100.00;98780.44;5228283;28;20025;-82
2021/12/10 10:11:56;;;;;;;11.57;6.03;;;;;;;3.77;100.00;98788.84;5225036;28;20127;-82
2021/12/10 10:14:27;;;;;;;13.35;6.40;;;;;;;3.87;100.00;98778.09;5225124;28;20025;-80
2021/12/10 10:16:57;;;;;;;14.57;6.65;;;;;;;3.73;100.00;98782.06;5224592;28;20032;-80
2021/12/10 10:19:28;;;;;;;11.65;6.45;;;;;;;3.89;100.00;98768.53;5224770;28;20533;-81
2021/12/10 10:21:59;;;;;;;12.15;6.50;;;;;;;3.92;100.00;98771.00;5224837;28;20031;-83
2021/12/10 10:24:30;;;;;;;10.60;5.63;;;;;;;3.83;100.00;98776.53;5224711;28;20024;-81
2021/12/10 10:27:08;;;;;;;11.45;6.13;;;;;;;4.07;100.00;98770.44;5224421;28;20741;-81
2021/12/10 10:29:42;;;;;;;12.98;6.70;;;;;;;3.99;100.00;98766.44;5218932;28;20021;-79
2021/12/10 10:32:17;;;;;;;12.32;6.18;;;;;;;4.13;100.00;98765.00;5241648;28;20024;-84
2021/12/10 10:34:55;;;;;;;12.23;6.53;;;;;;;4.02;100.00;98761.16;5244746;28;20111;-81
2021/12/10 10:37:25;;;;;;;13.07;6.55;;;;;;;3.91;100.00;98761.56;5245412;28;20032;-82
2021/12/10 10:39:55;;;;;;;11.35;6.40;;;;;;;4.05;100.00;98758.47;5245664;28;20381;-80
2021/12/10 10:42:28;;;;;;;12.88;6.78;;;;;;;4.05;100.00;98761.03;5244988;28;20024;-84
2021/12/10 10:45:04;;;;;;;12.02;6.10;;;;;;;4.10;100.00;98754.81;5232148;28;20480;-79
2021/12/10 10:47:35;;;;;;;12.75;6.05;;;;;;;3.97;100.00;98753.59;5224100;28;20107;-79
2021/12/10 10:50:21;;;;;;;13.20;6.35;;;;;;;4.00;100.00;98763.81;5224612;28;20109;-78
2021/12/10 10:52:55;;;;;;;;;;;;;;;4.10;100.00;98749.63;5224678;28;20386;-81
2021/12/10 10:55:30;;;;;;;10.48;5.88;;;;;;;4.14;100.00;98758.94;5224195;28;19999;-80
2021/12/10 10:58:07;;;;;;;10.77;6.30;;;;;;;4.27;100.00;98752.41;5223721;28;20086;-83
2021/12/10 11:01:14;;;;;;;11.98;6.10;;;;;;;4.47;100.00;98749.84;5236004;28;20021;-78
2021/12/10 11:03:51;;;;;;;13.18;6.53;;;;;;;4.45;100.00;98748.25;5226144;28;20028;-82
2021/12/10 11:06:29;;;;;;;11.52;6.20;;;;;;;4.51;100.00;98740.22;5235931;28;20017;-83
2021/12/10 11:09:14;;;;;;;11.93;6.22;;;;;;;4.29;100.00;98748.00;5210426;28;20036;-82
2021/12/10 11:11:58;;;;;;;11.02;5.93;;;;;;;4.14;100.00;98746.03;5223180;28;20104;-83
2021/12/10 11:14:33;;;;;;;10.10;5.20;;;;;;;4.09;100.00;98745.38;5223696;28;20032;-82
2021/12/10 11:17:08;;;;;;;11.55;5.75;;;;;;;4.35;100.00;98747.78;5223447;28;20033;-81
2021/12/10 11:19:41;;;;;;;11.35;5.60;;;;;;;4.51;100.00;98735.91;5223685;28;20033;-80
2021/12/10 11:22:15;;;;;;;9.30;5.43;;;;;;;4.48;100.00;98732.59;5223160;28;20021;-79
2021/12/10 11:24:55;;;;;;;9.57;5.72;;;;;;;4.55;100.00;98737.47;5223675;28;20048;-80
2021/12/10 11:27:35;;;;;;;10.73;5.55;;;;;;;4.42;100.00;98731.09;5223123;28;20081;-79
2021/12/10 11:30:21;;;;;;;10.57;5.30;;;;;;;4.57;100.00;98735.66;5226511;28;20047;-80
2021/12/10 11:33:10;;;;;;;10.20;5.78;;;;;;;4.63;100.00;98742.31;5222528;28;20070;-80
2021/12/10 11:35:48;;;;;;;12.60;5.57;;;;;;;4.66;100.00;98735.25;5230476;28;20483;-81
2021/12/10 11:38:24;;;;;;;9.55;5.57;;;;;;;4.73;100.00;98736.72;5224885;28;20465;-80
2021/12/10 11:40:59;;;;;;;;;;;;;;;4.73;100.00;98736.72;5219995;28;20397;-80
2021/12/10 11:43:52;;;;;;;12.65;5.18;;;;;;;4.66;100.00;98729.25;5223329;28;19916;-80
2021/12/10 11:46:32;;;;;;;18.20;5.68;;;;;;;4.59;100.00;98731.25;5221531;28;20025;-80
2021/12/10 11:49:14;;;;;;;10.23;5.28;;;;;;;4.82;100.00;98722.53;5223888;28;20048;-80
2021/12/10 11:51:59;;;;;;;12.77;5.60;;;;;;;4.79;100.00;98720.09;5220737;28;20704;-80
2021/12/10 11:54:38;;;;;;;9.77;4.93;;;;;;;4.86;100.00;98722.34;5223382;28;20036;-80
2021/12/10 11:57:14;;;;;;;9.13;5.30;;;;;;;4.80;100.00;98720.00;5224108;28;20028;-80
2021/12/10 11:59:48;;;;;;;9.63;5.50;;;;;;;4.67;100.00;98718.84;5222203;28;20025;-80
2021/12/10 12:02:28;;;;;;;10.07;5.47;;;;;;;4.69;100.00;98722.22;5227322;28;20478;-80
2021/12/10 12:05:03;;;;;;;10.93;5.68;;;;;;;4.71;100.00;98722.13;5221981;28;20150;-80
2021/12/10 12:07:38;;;;;;;12.70;6.20;;;;;;;4.58;100.00;98719.22;5223336;28;20024;-80